createdAt,value
2022-11-29T00:00:29.004Z,0
2022-11-29T00:05:38.091Z,0
2022-11-29T00:10:47.874Z,0
2022-11-29T00:15:56.326Z,0
2022-11-29T00:21:06.083Z,0
2022-11-29T00:26:15.843Z,0
2022-11-29T00:31:25.604Z,0
2022-11-29T00:36:34.118Z,0
2022-11-29T00:41:42.567Z,0
2022-11-29T00:46:54.886Z,0
2022-11-29T00:52:04.649Z,0
2022-11-29T00:57:14.399Z,0
2022-11-29T01:03:04.513Z,0
2022-11-29T01:08:13.615Z,0
2022-11-29T01:13:22.093Z,0
2022-11-29T01:18:31.207Z,0
2022-11-29T01:23:40.995Z,0
2022-11-29T01:28:50.818Z,0
2022-11-29T01:34:00.523Z,0
2022-11-29T01:39:14.270Z,0
2022-11-29T01:44:30.439Z,0
2022-11-29T01:49:47.886Z,0
2022-11-29T01:55:05.319Z,0
2022-11-29T02:00:22.767Z,0
2022-11-29T02:05:39.726Z,0
2022-11-29T02:10:57.165Z,0
2022-11-29T02:16:13.478Z,0
2022-11-29T02:20:38.935Z,0
2022-11-29T02:25:31.039Z,0
2022-11-29T02:30:41.029Z,0
2022-11-29T02:35:50.560Z,0
2022-11-29T02:41:00.990Z,0
2022-11-29T02:46:11.567Z,0
2022-11-29T02:51:20.486Z,0
2022-11-29T02:56:30.242Z,0
2022-11-29T03:01:40.211Z,0
2022-11-29T03:06:50.406Z,0
2022-11-29T03:12:05.505Z,0
2022-11-29T03:17:20.422Z,0
2022-11-29T03:22:37.201Z,0
2022-11-29T03:27:51.428Z,0
2022-11-29T03:33:07.585Z,0
2022-11-29T03:38:23.141Z,0
2022-11-29T03:43:37.347Z,0
2022-11-29T03:48:54.163Z,0
2022-11-29T03:54:09.667Z,0
2022-11-29T03:59:24.549Z,0
2022-11-29T04:03:50.097Z,0
2022-11-29T04:08:41.153Z,0
2022-11-29T04:13:50.886Z,0
2022-11-29T04:19:00.646Z,0
2022-11-29T04:24:09.124Z,0
2022-11-29T04:29:18.887Z,0
2022-11-29T04:34:28.654Z,0
2022-11-29T04:39:37.129Z,0
2022-11-29T04:44:47.716Z,0
2022-11-29T04:49:57.281Z,0
2022-11-29T04:55:07.044Z,0
2022-11-29T05:00:16.807Z,0
2022-11-29T05:05:26.565Z,0
2022-11-29T05:10:35.742Z,0
2022-11-29T05:15:44.393Z,0
2022-11-29T05:20:53.267Z,0
2022-11-29T05:26:02.405Z,0
2022-11-29T05:31:12.263Z,0
2022-11-29T05:36:20.652Z,0
2022-11-29T05:41:31.035Z,0
2022-11-29T05:46:39.703Z,0
2022-11-29T05:51:48.032Z,0
2022-11-29T05:56:56.483Z,0
2022-11-29T06:02:05.756Z,0
2022-11-29T06:07:17.713Z,0
2022-11-29T06:12:33.837Z,0
2022-11-29T06:17:50.017Z,0
2022-11-29T06:23:05.493Z,0
2022-11-29T06:28:20.418Z,0
2022-11-29T06:38:50.788Z,0
2022-11-29T06:44:05.663Z,0
2022-11-29T06:49:20.613Z,1
2022-11-29T06:54:35.433Z,2
2022-11-29T06:59:50.945Z,4
2022-11-29T07:04:17.077Z,7
2022-11-29T07:09:07.361Z,9
2022-11-29T07:14:16.482Z,11
2022-11-29T07:19:25.605Z,16
2022-11-29T07:24:34.089Z,19
2022-11-29T07:29:46.617Z,36
2022-11-29T07:35:02.782Z,54
2022-11-29T07:40:18.341Z,66
2022-11-29T07:45:33.176Z,84
2022-11-29T07:50:49.349Z,106
2022-11-29T07:56:05.537Z,119
2022-11-29T08:01:21.727Z,119
2022-11-29T08:06:37.203Z,130
2022-11-29T08:11:54.629Z,139
2022-11-29T08:16:20.307Z,155
2022-11-29T08:21:14.457Z,173
2022-11-29T08:26:32.176Z,198
2022-11-29T08:31:33.410Z,216
2022-11-29T08:36:42.408Z,232
2022-11-29T08:41:52.807Z,242
2022-11-29T08:47:01.926Z,222
2022-11-29T08:52:12.379Z,235
2022-11-29T08:57:41.571Z,233
2022-11-29T09:02:31.971Z,254
2022-11-29T09:07:42.466Z,286
2022-11-29T09:12:52.662Z,371
2022-11-29T09:18:01.138Z,371
2022-11-29T09:23:10.274Z,397
2022-11-29T09:28:20.660Z,394
2022-11-29T09:33:30.408Z,382
2022-11-29T09:38:39.526Z,393
2022-11-29T09:43:55.397Z,367
2022-11-29T09:49:12.212Z,367
2022-11-29T09:54:28.204Z,360
2022-11-29T09:59:43.882Z,359
2022-11-29T10:05:02.035Z,479
2022-11-29T10:10:19.060Z,490
2022-11-29T10:15:34.934Z,399
2022-11-29T10:20:52.361Z,419
2022-11-29T10:26:10.011Z,366
2022-11-29T10:30:14.606Z,321
2022-11-29T10:35:23.700Z,374
2022-11-29T10:40:32.182Z,410
2022-11-29T10:45:42.217Z,393
2022-11-29T10:50:51.688Z,421
2022-11-29T10:56:00.837Z,440
2022-11-29T11:01:10.150Z,495
2022-11-29T11:06:19.048Z,522
2022-11-29T11:11:28.170Z,519
2022-11-29T11:16:38.168Z,670
2022-11-29T11:21:46.403Z,837
2022-11-29T11:26:54.895Z,870
2022-11-29T11:32:03.461Z,726
2022-11-29T11:37:13.146Z,824
2022-11-29T11:42:22.255Z,740
2022-11-29T11:47:35.758Z,531
2022-11-29T11:52:50.933Z,398
2022-11-29T11:57:48.334Z,314
2022-11-29T12:03:01.736Z,333
2022-11-29T12:13:37.958Z,425
2022-11-29T12:18:54.734Z,543
2022-11-29T12:26:59.469Z,486
2022-11-29T12:28:06.475Z,486
2022-11-29T12:31:46.763Z,576
2022-11-29T12:32:56.722Z,576
2022-11-29T12:37:04.189Z,629
2022-11-29T12:38:14.148Z,629
2022-11-29T12:42:19.057Z,683
2022-11-29T12:49:01.592Z,376
2022-11-29T12:56:09.137Z,445
2022-11-29T12:56:42.201Z,445
2022-11-29T13:01:26.826Z,552
2022-11-29T13:02:01.632Z,552
2022-11-29T13:06:42.728Z,419
2022-11-29T13:07:19.383Z,419
2022-11-29T13:12:03.395Z,351
2022-11-29T13:12:36.626Z,351
2022-11-29T13:17:31.557Z,321
2022-11-29T13:18:21.561Z,321
2022-11-29T13:22:36.339Z,218
2022-11-29T13:23:33.362Z,218
2022-11-29T13:27:51.847Z,215
2022-11-29T13:28:25.845Z,215
2022-11-29T13:33:08.028Z,132
2022-11-29T13:33:44.282Z,132
2022-11-29T13:38:24.222Z,168
2022-11-29T13:39:53.196Z,168
2022-11-29T13:44:52.018Z,159
2022-11-29T13:45:40.772Z,159
2022-11-29T13:50:49.773Z,171
2022-11-29T14:15:39.186Z,196
2022-11-29T14:16:00.012Z,196
2022-11-29T14:21:05.439Z,157
2022-11-29T14:21:25.417Z,157
2022-11-29T14:26:29.372Z,211
2022-11-29T14:26:46.789Z,211
2022-11-29T14:31:37.265Z,208
2022-11-29T14:31:57.142Z,208
2022-11-29T14:36:52.011Z,156
2022-11-29T14:37:11.978Z,156
2022-11-29T14:42:08.173Z,118
2022-11-29T14:42:28.150Z,118
2022-11-29T14:47:26.877Z,173
2022-11-29T14:52:12.372Z,173
2022-11-29T14:57:29.704Z,121
2022-11-29T15:02:45.729Z,89
2022-11-29T15:13:21.335Z,48
2022-11-29T15:14:11.340Z,48
2022-11-29T15:23:56.684Z,29
2022-11-29T15:24:46.864Z,29
2022-11-29T15:34:31.164Z,8
2022-11-29T15:35:21.162Z,8
2022-11-29T15:45:07.401Z,3
2022-11-29T15:45:57.454Z,3
2022-11-29T15:55:43.411Z,0
2022-11-29T15:56:33.410Z,0
2022-11-29T16:06:18.966Z,0
2022-11-29T16:12:10.755Z,0
2022-11-29T16:17:20.826Z,0
2022-11-29T16:17:43.646Z,0
2022-11-29T16:22:38.244Z,0
2022-11-29T16:23:00.762Z,0
2022-11-29T16:27:54.430Z,0
2022-11-29T16:28:16.598Z,0
2022-11-29T16:33:15.085Z,0
2022-11-29T16:34:09.511Z,0
2022-11-29T16:39:00.651Z,0
2022-11-29T16:43:15.777Z,0
2022-11-29T16:48:33.905Z,0
2022-11-29T16:53:52.206Z,0
2022-11-29T17:04:25.631Z,0
2022-11-29T17:09:41.023Z,0
2022-11-29T17:14:57.186Z,0
2022-11-29T17:20:12.725Z,0
2022-11-29T17:25:28.897Z,0
2022-11-29T17:30:45.026Z,0
2022-11-29T17:31:35.047Z,0
2022-11-29T17:36:24.492Z,0
2022-11-29T17:36:50.543Z,0
2022-11-29T17:41:41.333Z,0
2022-11-29T18:07:31.189Z,0
2022-11-29T18:23:18.298Z,0
2022-11-29T18:28:33.226Z,0
2022-11-29T18:29:24.667Z,0
2022-11-29T18:34:24.810Z,0
2022-11-29T18:35:12.585Z,0
2022-11-29T18:40:18.759Z,0
2022-11-29T18:49:35.908Z,0
2022-11-29T18:54:52.052Z,0
2022-11-29T19:00:06.970Z,0
2022-11-29T19:05:22.578Z,0
2022-11-29T19:13:22.865Z,0
2022-11-29T19:18:11.369Z,0
2022-11-29T19:18:31.343Z,0
2022-11-29T19:23:26.888Z,0
2022-11-29T19:25:26.867Z,0
2022-11-29T19:30:00.068Z,0
2022-11-29T19:30:50.113Z,0
2022-11-29T19:35:14.336Z,0
2022-11-29T19:43:34.566Z,0
2022-11-29T19:43:54.536Z,0
2022-11-29T19:49:02.884Z,0
2022-11-29T19:49:22.861Z,0
2022-11-29T19:54:19.674Z,0
2022-11-29T19:54:39.647Z,0
2022-11-29T19:59:36.480Z,0
2022-11-29T19:59:56.468Z,0
2022-11-29T20:04:55.214Z,0
2022-11-29T20:08:35.182Z,0
2022-11-29T20:13:42.961Z,0
2022-11-29T20:18:58.105Z,0
2022-11-29T20:19:48.310Z,0
2022-11-29T20:24:13.978Z,0
2022-11-29T20:25:03.983Z,0
2022-11-29T20:29:28.868Z,0
2022-11-29T20:33:04.383Z,0
2022-11-29T20:38:19.268Z,0
2022-11-29T20:45:14.142Z,0
2022-11-29T20:46:04.180Z,0
2022-11-29T20:50:30.299Z,0
2022-11-29T20:51:41.460Z,0
2022-11-29T20:56:51.363Z,0
2022-11-29T20:57:11.336Z,0
2022-11-29T21:02:09.447Z,0
2022-11-29T21:02:29.414Z,0
2022-11-29T21:07:25.809Z,0
2022-11-29T21:07:45.725Z,0
2022-11-29T21:12:42.400Z,0
2022-11-29T21:13:02.374Z,0
2022-11-29T21:17:57.933Z,0
2022-11-29T21:18:17.941Z,0
2022-11-29T21:23:14.098Z,0
2022-11-29T21:23:34.072Z,0
2022-11-29T21:28:29.610Z,0
2022-11-29T21:28:49.587Z,0
2022-11-29T21:33:45.765Z,0
2022-11-29T21:34:05.743Z,0
2022-11-29T21:39:05.680Z,0
2022-11-29T21:45:16.342Z,0
2022-11-29T21:46:19.359Z,0
2022-11-29T21:50:43.366Z,0
2022-11-29T21:51:53.346Z,0
2022-11-29T21:55:58.924Z,0
2022-11-29T21:57:08.894Z,0
2022-11-29T22:01:14.726Z,0
2022-11-29T22:02:24.555Z,0
2022-11-29T22:06:32.481Z,0
2022-11-29T22:08:32.462Z,0
2022-11-29T22:11:48.658Z,0
2022-11-29T22:13:48.628Z,0
2022-11-29T22:17:24.150Z,0
2022-11-29T22:19:04.153Z,0
2022-11-29T22:22:39.676Z,0
2022-11-29T22:24:19.664Z,0
2022-11-29T22:27:55.183Z,0
2022-11-29T22:29:35.183Z,0
2022-11-29T22:33:13.401Z,0
2022-11-29T22:34:51.350Z,0
2022-11-29T22:38:26.228Z,0
2022-11-29T22:40:06.231Z,0
2022-11-29T22:44:32.387Z,0
2022-11-29T22:45:22.388Z,0
2022-11-29T22:49:48.909Z,0
2022-11-29T22:50:38.902Z,0
2022-11-29T22:55:05.131Z,0
2022-11-29T22:55:54.068Z,0
2022-11-29T23:00:19.585Z,0
2022-11-29T23:01:09.677Z,0
2022-11-29T23:05:34.490Z,0
2022-11-29T23:06:24.496Z,0
2022-11-29T23:10:49.346Z,0
2022-11-29T23:11:39.343Z,0
2022-11-29T23:16:06.772Z,0
2022-11-29T23:16:56.788Z,0
2022-11-29T23:21:21.696Z,0
2022-11-29T23:22:11.696Z,0
2022-11-29T23:26:36.547Z,0
2022-11-29T23:27:26.548Z,0
2022-11-29T23:31:52.136Z,0
2022-11-29T23:32:42.101Z,0
2022-11-29T23:37:06.944Z,0
2022-11-29T23:37:56.944Z,0
2022-11-29T23:42:23.747Z,0
2022-11-29T23:43:13.754Z,0
2022-11-29T23:47:39.297Z,0
2022-11-29T23:48:29.300Z,0
2022-11-29T23:52:54.774Z,0
2022-11-29T23:53:44.783Z,0
2022-11-29T23:58:09.663Z,0
2022-11-29T23:58:59.668Z,0
